sensor_id;sensor_type;location;lat;lon;timestamp;temperature;humidity
18876;DHT22;9570;50.854;13.778;2023-08-20T00:00:09;21.70;99.90
18876;DHT22;9570;50.854;13.778;2023-08-20T00:02:37;21.70;99.90
18876;DHT22;9570;50.854;13.778;2023-08-20T00:05:03;21.70;99.90
18876;DHT22;9570;50.854;13.778;2023-08-20T00:07:30;21.70;99.90
18876;DHT22;9570;50.854;13.778;2023-08-20T00:09:56;21.60;99.90
18876;DHT22;9570;50.854;13.778;2023-08-20T00:12:21;21.60;99.90
18876;DHT22;9570;50.854;13.778;2023-08-20T00:15:02;21.60;99.90
18876;DHT22;9570;50.854;13.778;2023-08-20T00:17:38;21.60;99.90
18876;DHT22;9570;50.854;13.778;2023-08-20T00:20:06;21.60;99.90
18876;DHT22;9570;50.854;13.778;2023-08-20T00:22:39;21.50;99.90
18876;DHT22;9570;50.854;13.778;2023-08-20T00:25:06;21.60;99.90
18876;DHT22;9570;50.854;13.778;2023-08-20T00:27:32;21.70;99.90
18876;DHT22;9570;50.854;13.778;2023-08-20T00:29:58;21.70;99.90
18876;DHT22;9570;50.854;13.778;2023-08-20T00:32:23;21.70;99.90
18876;DHT22;9570;50.854;13.778;2023-08-20T00:34:49;21.70;99.90
18876;DHT22;9570;50.854;13.778;2023-08-20T00:37:14;21.70;99.90
18876;DHT22;9570;50.854;13.778;2023-08-20T00:39:40;21.70;99.90
18876;DHT22;9570;50.854;13.778;2023-08-20T00:42:06;21.80;99.90
18876;DHT22;9570;50.854;13.778;2023-08-20T00:44:33;21.80;99.90
18876;DHT22;9570;50.854;13.778;2023-08-20T00:47:01;21.80;99.90
18876;DHT22;9570;50.854;13.778;2023-08-20T00:49:28;21.80;99.90
18876;DHT22;9570;50.854;13.778;2023-08-20T00:51:54;21.80;99.90
18876;DHT22;9570;50.854;13.778;2023-08-20T00:54:22;21.90;99.90
18876;DHT22;9570;50.854;13.778;2023-08-20T00:56:49;21.90;99.90
18876;DHT22;9570;50.854;13.778;2023-08-20T00:59:15;21.90;99.90
18876;DHT22;9570;50.854;13.778;2023-08-20T01:01:41;21.90;99.90
18876;DHT22;9570;50.854;13.778;2023-08-20T01:04:06;22.00;99.90
18876;DHT22;9570;50.854;13.778;2023-08-20T01:06:46;21.90;99.90
18876;DHT22;9570;50.854;13.778;2023-08-20T01:09:33;22.00;99.90
18876;DHT22;9570;50.854;13.778;2023-08-20T01:12:00;22.00;99.90
18876;DHT22;9570;50.854;13.778;2023-08-20T01:14:27;22.00;99.90
18876;DHT22;9570;50.854;13.778;2023-08-20T01:16:53;22.00;99.90
18876;DHT22;9570;50.854;13.778;2023-08-20T01:19:20;22.00;99.90
18876;DHT22;9570;50.854;13.778;2023-08-20T01:22:15;22.00;99.90
18876;DHT22;9570;50.854;13.778;2023-08-20T01:25:00;22.00;99.90
18876;DHT22;9570;50.854;13.778;2023-08-20T01:27:52;22.10;99.90
18876;DHT22;9570;50.854;13.778;2023-08-20T01:30:20;22.10;99.90
18876;DHT22;9570;50.854;13.778;2023-08-20T01:32:49;22.10;99.90
18876;DHT22;9570;50.854;13.778;2023-08-20T01:35:17;22.10;99.90
18876;DHT22;9570;50.854;13.778;2023-08-20T01:37:43;22.10;99.90
18876;DHT22;9570;50.854;13.778;2023-08-20T01:40:09;22.10;99.90
18876;DHT22;9570;50.854;13.778;2023-08-20T01:42:38;22.10;99.90
18876;DHT22;9570;50.854;13.778;2023-08-20T01:45:05;22.10;99.90
18876;DHT22;9570;50.854;13.778;2023-08-20T01:47:31;22.10;99.90
18876;DHT22;9570;50.854;13.778;2023-08-20T01:49:56;22.10;99.90
18876;DHT22;9570;50.854;13.778;2023-08-20T01:52:22;22.10;99.90
18876;DHT22;9570;50.854;13.778;2023-08-20T01:54:48;22.10;99.90
18876;DHT22;9570;50.854;13.778;2023-08-20T01:57:14;22.10;99.90
18876;DHT22;9570;50.854;13.778;2023-08-20T01:59:39;22.10;99.90
18876;DHT22;9570;50.854;13.778;2023-08-20T02:02:05;22.10;99.90
18876;DHT22;9570;50.854;13.778;2023-08-20T02:04:31;22.20;99.90
18876;DHT22;9570;50.854;13.778;2023-08-20T02:06:57;22.10;99.90
18876;DHT22;9570;50.854;13.778;2023-08-20T02:09:22;22.20;99.90
18876;DHT22;9570;50.854;13.778;2023-08-20T02:11:48;22.20;99.90
18876;DHT22;9570;50.854;13.778;2023-08-20T02:14:13;22.20;99.90
18876;DHT22;9570;50.854;13.778;2023-08-20T02:16:39;22.20;99.90
18876;DHT22;9570;50.854;13.778;2023-08-20T02:19:05;22.20;99.90
18876;DHT22;9570;50.854;13.778;2023-08-20T02:21:32;22.20;99.90
18876;DHT22;9570;50.854;13.778;2023-08-20T02:23:57;22.20;99.90
18876;DHT22;9570;50.854;13.778;2023-08-20T02:26:23;22.20;99.90
18876;DHT22;9570;50.854;13.778;2023-08-20T02:28:49;22.20;99.90
18876;DHT22;9570;50.854;13.778;2023-08-20T02:31:14;22.20;99.90
18876;DHT22;9570;50.854;13.778;2023-08-20T02:33:40;22.20;99.90
18876;DHT22;9570;50.854;13.778;2023-08-20T02:36:05;22.20;99.90
18876;DHT22;9570;50.854;13.778;2023-08-20T02:38:31;22.30;99.90
18876;DHT22;9570;50.854;13.778;2023-08-20T02:40:56;22.20;99.90
18876;DHT22;9570;50.854;13.778;2023-08-20T02:43:22;22.30;99.90
18876;DHT22;9570;50.854;13.778;2023-08-20T02:45:47;22.30;99.90
18876;DHT22;9570;50.854;13.778;2023-08-20T02:48:14;22.30;99.90
18876;DHT22;9570;50.854;13.778;2023-08-20T02:50:40;22.30;99.90
18876;DHT22;9570;50.854;13.778;2023-08-20T02:53:06;22.20;99.90
18876;DHT22;9570;50.854;13.778;2023-08-20T02:55:32;22.20;99.90
18876;DHT22;9570;50.854;13.778;2023-08-20T02:57:58;22.30;99.90
18876;DHT22;9570;50.854;13.778;2023-08-20T03:00:24;22.30;99.90
18876;DHT22;9570;50.854;13.778;2023-08-20T03:02:50;22.30;99.90
18876;DHT22;9570;50.854;13.778;2023-08-20T03:05:15;22.20;99.90
18876;DHT22;9570;50.854;13.778;2023-08-20T03:07:41;22.30;99.90
18876;DHT22;9570;50.854;13.778;2023-08-20T03:10:06;22.30;99.90
18876;DHT22;9570;50.854;13.778;2023-08-20T03:12:32;22.30;99.90
18876;DHT22;9570;50.854;13.778;2023-08-20T03:14:59;22.20;99.90
18876;DHT22;9570;50.854;13.778;2023-08-20T03:17:25;22.30;99.90
18876;DHT22;9570;50.854;13.778;2023-08-20T03:19:55;22.20;99.90
18876;DHT22;9570;50.854;13.778;2023-08-20T03:22:21;22.20;99.90
18876;DHT22;9570;50.854;13.778;2023-08-20T03:24:47;22.20;99.90
18876;DHT22;9570;50.854;13.778;2023-08-20T03:27:12;22.20;99.90
18876;DHT22;9570;50.854;13.778;2023-08-20T03:29:38;22.20;99.90
18876;DHT22;9570;50.854;13.778;2023-08-20T03:32:04;22.20;99.90
18876;DHT22;9570;50.854;13.778;2023-08-20T03:34:29;22.20;99.90
18876;DHT22;9570;50.854;13.778;2023-08-20T03:36:55;22.20;99.90
18876;DHT22;9570;50.854;13.778;2023-08-20T03:39:20;22.20;99.90
18876;DHT22;9570;50.854;13.778;2023-08-20T03:41:46;22.20;99.90
18876;DHT22;9570;50.854;13.778;2023-08-20T03:44:12;22.10;99.90
18876;DHT22;9570;50.854;13.778;2023-08-20T03:46:37;22.00;99.90
18876;DHT22;9570;50.854;13.778;2023-08-20T03:49:03;21.90;99.90
18876;DHT22;9570;50.854;13.778;2023-08-20T03:51:28;22.00;99.90
18876;DHT22;9570;50.854;13.778;2023-08-20T03:53:54;22.00;99.90
18876;DHT22;9570;50.854;13.778;2023-08-20T03:56:19;22.00;99.90
18876;DHT22;9570;50.854;13.778;2023-08-20T03:58:45;21.90;99.90
18876;DHT22;9570;50.854;13.778;2023-08-20T04:01:10;22.00;99.90
18876;DHT22;9570;50.854;13.778;2023-08-20T04:03:36;22.00;99.90
18876;DHT22;9570;50.854;13.778;2023-08-20T04:06:02;22.10;99.90
18876;DHT22;9570;50.854;13.778;2023-08-20T04:08:28;22.10;99.90
18876;DHT22;9570;50.854;13.778;2023-08-20T04:10:54;22.10;99.90
18876;DHT22;9570;50.854;13.778;2023-08-20T04:13:19;22.10;99.90
18876;DHT22;9570;50.854;13.778;2023-08-20T04:15:45;22.10;99.90
18876;DHT22;9570;50.854;13.778;2023-08-20T04:18:10;22.20;99.90
18876;DHT22;9570;50.854;13.778;2023-08-20T04:20:36;22.10;99.90
18876;DHT22;9570;50.854;13.778;2023-08-20T04:23:01;22.10;99.90
18876;DHT22;9570;50.854;13.778;2023-08-20T04:25:27;22.20;99.90
18876;DHT22;9570;50.854;13.778;2023-08-20T04:27:52;22.10;99.90
18876;DHT22;9570;50.854;13.778;2023-08-20T04:30:18;22.10;99.90
18876;DHT22;9570;50.854;13.778;2023-08-20T04:32:43;22.10;99.90
18876;DHT22;9570;50.854;13.778;2023-08-20T04:35:09;22.10;99.90
18876;DHT22;9570;50.854;13.778;2023-08-20T04:37:35;22.20;99.90
18876;DHT22;9570;50.854;13.778;2023-08-20T04:40:01;22.20;99.90
18876;DHT22;9570;50.854;13.778;2023-08-20T04:42:29;22.40;99.90
18876;DHT22;9570;50.854;13.778;2023-08-20T04:44:55;22.50;99.90
18876;DHT22;9570;50.854;13.778;2023-08-20T04:47:20;22.60;99.90
18876;DHT22;9570;50.854;13.778;2023-08-20T04:49:46;22.70;99.90
18876;DHT22;9570;50.854;13.778;2023-08-20T04:52:11;22.80;99.90
18876;DHT22;9570;50.854;13.778;2023-08-20T04:54:37;22.90;99.90
18876;DHT22;9570;50.854;13.778;2023-08-20T04:57:02;22.90;99.90
18876;DHT22;9570;50.854;13.778;2023-08-20T04:59:28;22.90;99.90
18876;DHT22;9570;50.854;13.778;2023-08-20T05:01:54;23.00;99.90
18876;DHT22;9570;50.854;13.778;2023-08-20T05:04:19;23.10;99.90
18876;DHT22;9570;50.854;13.778;2023-08-20T05:06:45;23.20;99.90
18876;DHT22;9570;50.854;13.778;2023-08-20T05:09:10;23.20;99.90
18876;DHT22;9570;50.854;13.778;2023-08-20T05:11:36;23.20;99.90
18876;DHT22;9570;50.854;13.778;2023-08-20T05:14:02;23.20;99.90
18876;DHT22;9570;50.854;13.778;2023-08-20T05:16:27;23.20;99.90
18876;DHT22;9570;50.854;13.778;2023-08-20T05:18:52;23.20;99.90
18876;DHT22;9570;50.854;13.778;2023-08-20T05:21:18;23.20;99.90
18876;DHT22;9570;50.854;13.778;2023-08-20T05:23:43;23.20;99.90
18876;DHT22;9570;50.854;13.778;2023-08-20T05:26:10;23.30;99.90
18876;DHT22;9570;50.854;13.778;2023-08-20T05:28:35;23.30;99.90
18876;DHT22;9570;50.854;13.778;2023-08-20T05:31:01;23.40;99.90
18876;DHT22;9570;50.854;13.778;2023-08-20T05:33:26;23.40;99.90
18876;DHT22;9570;50.854;13.778;2023-08-20T05:35:52;23.30;99.90
18876;DHT22;9570;50.854;13.778;2023-08-20T05:38:18;23.30;99.90
18876;DHT22;9570;50.854;13.778;2023-08-20T05:40:43;23.40;99.90
18876;DHT22;9570;50.854;13.778;2023-08-20T05:43:09;23.40;99.90
18876;DHT22;9570;50.854;13.778;2023-08-20T05:45:35;23.40;99.90
18876;DHT22;9570;50.854;13.778;2023-08-20T05:48:00;23.40;99.90
18876;DHT22;9570;50.854;13.778;2023-08-20T05:50:26;23.40;99.90
18876;DHT22;9570;50.854;13.778;2023-08-20T05:52:52;23.40;99.90
18876;DHT22;9570;50.854;13.778;2023-08-20T05:55:18;23.40;99.90
18876;DHT22;9570;50.854;13.778;2023-08-20T05:57:43;23.40;99.90
18876;DHT22;9570;50.854;13.778;2023-08-20T06:00:09;23.30;99.90
18876;DHT22;9570;50.854;13.778;2023-08-20T06:02:36;23.30;99.90
18876;DHT22;9570;50.854;13.778;2023-08-20T06:05:02;23.20;99.90
18876;DHT22;9570;50.854;13.778;2023-08-20T06:07:30;23.30;99.90
18876;DHT22;9570;50.854;13.778;2023-08-20T06:09:55;23.40;99.90
18876;DHT22;9570;50.854;13.778;2023-08-20T06:12:22;23.40;99.90
18876;DHT22;9570;50.854;13.778;2023-08-20T06:14:47;23.50;99.90
18876;DHT22;9570;50.854;13.778;2023-08-20T06:17:13;23.50;99.90
18876;DHT22;9570;50.854;13.778;2023-08-20T06:19:38;23.60;99.90
18876;DHT22;9570;50.854;13.778;2023-08-20T06:22:04;23.60;99.90
18876;DHT22;9570;50.854;13.778;2023-08-20T06:24:29;23.60;99.90
18876;DHT22;9570;50.854;13.778;2023-08-20T06:26:55;23.60;99.90
18876;DHT22;9570;50.854;13.778;2023-08-20T06:29:20;23.60;99.90
18876;DHT22;9570;50.854;13.778;2023-08-20T06:31:47;23.60;99.90
18876;DHT22;9570;50.854;13.778;2023-08-20T06:34:14;23.70;99.90
18876;DHT22;9570;50.854;13.778;2023-08-20T06:36:39;23.70;99.90
18876;DHT22;9570;50.854;13.778;2023-08-20T06:39:05;23.70;99.90
18876;DHT22;9570;50.854;13.778;2023-08-20T06:41:30;23.80;99.90
18876;DHT22;9570;50.854;13.778;2023-08-20T06:43:56;23.80;99.90
18876;DHT22;9570;50.854;13.778;2023-08-20T06:46:21;23.80;99.90
18876;DHT22;9570;50.854;13.778;2023-08-20T06:48:47;23.80;99.90
18876;DHT22;9570;50.854;13.778;2023-08-20T06:51:19;23.90;99.90
18876;DHT22;9570;50.854;13.778;2023-08-20T06:53:45;23.90;99.90
18876;DHT22;9570;50.854;13.778;2023-08-20T06:56:10;23.80;99.90
18876;DHT22;9570;50.854;13.778;2023-08-20T06:58:37;23.70;99.90
18876;DHT22;9570;50.854;13.778;2023-08-20T07:01:03;23.80;99.90
18876;DHT22;9570;50.854;13.778;2023-08-20T07:03:35;23.70;99.90
18876;DHT22;9570;50.854;13.778;2023-08-20T07:06:01;23.90;99.90
18876;DHT22;9570;50.854;13.778;2023-08-20T07:08:27;24.10;99.90
18876;DHT22;9570;50.854;13.778;2023-08-20T07:10:52;24.40;99.90
18876;DHT22;9570;50.854;13.778;2023-08-20T07:13:18;24.70;99.90
18876;DHT22;9570;50.854;13.778;2023-08-20T07:15:43;24.70;99.90
18876;DHT22;9570;50.854;13.778;2023-08-20T07:18:09;24.60;99.90
18876;DHT22;9570;50.854;13.778;2023-08-20T07:20:38;24.60;99.90
18876;DHT22;9570;50.854;13.778;2023-08-20T07:23:04;24.40;99.90
18876;DHT22;9570;50.854;13.778;2023-08-20T07:25:29;24.50;99.90
18876;DHT22;9570;50.854;13.778;2023-08-20T07:27:55;24.80;99.90
18876;DHT22;9570;50.854;13.778;2023-08-20T07:30:25;25.00;99.90
18876;DHT22;9570;50.854;13.778;2023-08-20T07:32:51;25.30;99.90
18876;DHT22;9570;50.854;13.778;2023-08-20T07:35:16;25.70;99.90
18876;DHT22;9570;50.854;13.778;2023-08-20T07:37:42;25.90;99.90
18876;DHT22;9570;50.854;13.778;2023-08-20T07:40:08;26.00;99.90
18876;DHT22;9570;50.854;13.778;2023-08-20T07:42:33;26.10;99.90
18876;DHT22;9570;50.854;13.778;2023-08-20T07:44:59;26.10;99.90
18876;DHT22;9570;50.854;13.778;2023-08-20T07:47:24;26.10;99.90
18876;DHT22;9570;50.854;13.778;2023-08-20T07:49:50;26.10;99.90
18876;DHT22;9570;50.854;13.778;2023-08-20T07:52:15;26.20;99.90
18876;DHT22;9570;50.854;13.778;2023-08-20T07:54:41;26.20;99.90
18876;DHT22;9570;50.854;13.778;2023-08-20T07:57:07;26.20;99.90
18876;DHT22;9570;50.854;13.778;2023-08-20T07:59:33;26.20;99.90
18876;DHT22;9570;50.854;13.778;2023-08-20T08:01:58;26.40;99.90
18876;DHT22;9570;50.854;13.778;2023-08-20T08:04:24;26.80;99.90
18876;DHT22;9570;50.854;13.778;2023-08-20T08:06:49;27.20;99.90
18876;DHT22;9570;50.854;13.778;2023-08-20T08:09:19;27.70;99.90
18876;DHT22;9570;50.854;13.778;2023-08-20T08:11:48;28.00;99.90
18876;DHT22;9570;50.854;13.778;2023-08-20T08:14:14;28.20;99.90
18876;DHT22;9570;50.854;13.778;2023-08-20T08:16:40;28.30;99.90
18876;DHT22;9570;50.854;13.778;2023-08-20T08:19:05;28.20;99.90
18876;DHT22;9570;50.854;13.778;2023-08-20T08:21:30;28.10;99.90
18876;DHT22;9570;50.854;13.778;2023-08-20T08:23:56;28.20;99.90
18876;DHT22;9570;50.854;13.778;2023-08-20T08:26:21;28.80;99.90
18876;DHT22;9570;50.854;13.778;2023-08-20T08:28:47;29.10;99.90
18876;DHT22;9570;50.854;13.778;2023-08-20T08:31:12;29.50;99.90
18876;DHT22;9570;50.854;13.778;2023-08-20T08:33:38;29.50;99.90
18876;DHT22;9570;50.854;13.778;2023-08-20T08:36:03;29.40;99.90
18876;DHT22;9570;50.854;13.778;2023-08-20T08:38:29;29.70;99.90
18876;DHT22;9570;50.854;13.778;2023-08-20T08:40:55;29.50;99.90
18876;DHT22;9570;50.854;13.778;2023-08-20T08:43:22;29.30;99.90
18876;DHT22;9570;50.854;13.778;2023-08-20T08:45:47;29.10;99.90
18876;DHT22;9570;50.854;13.778;2023-08-20T08:48:14;29.10;99.90
18876;DHT22;9570;50.854;13.778;2023-08-20T08:50:40;29.20;99.90
18876;DHT22;9570;50.854;13.778;2023-08-20T08:53:07;29.20;99.90
18876;DHT22;9570;50.854;13.778;2023-08-20T08:55:33;29.30;99.90
18876;DHT22;9570;50.854;13.778;2023-08-20T08:57:58;29.20;99.90
18876;DHT22;9570;50.854;13.778;2023-08-20T09:00:24;28.90;99.90
18876;DHT22;9570;50.854;13.778;2023-08-20T09:02:49;28.60;99.90
18876;DHT22;9570;50.854;13.778;2023-08-20T09:05:15;28.60;99.90
18876;DHT22;9570;50.854;13.778;2023-08-20T09:07:44;28.70;99.90
18876;DHT22;9570;50.854;13.778;2023-08-20T09:10:10;28.80;99.90
18876;DHT22;9570;50.854;13.778;2023-08-20T09:12:35;28.80;99.90
18876;DHT22;9570;50.854;13.778;2023-08-20T09:15:02;28.90;99.90
18876;DHT22;9570;50.854;13.778;2023-08-20T09:17:28;29.30;99.90
18876;DHT22;9570;50.854;13.778;2023-08-20T09:19:55;29.50;99.90
18876;DHT22;9570;50.854;13.778;2023-08-20T09:22:24;29.40;99.90
18876;DHT22;9570;50.854;13.778;2023-08-20T09:24:54;29.50;99.90
18876;DHT22;9570;50.854;13.778;2023-08-20T09:27:21;29.20;99.90
18876;DHT22;9570;50.854;13.778;2023-08-20T09:29:48;29.20;99.90
18876;DHT22;9570;50.854;13.778;2023-08-20T09:32:22;29.40;99.90
18876;DHT22;9570;50.854;13.778;2023-08-20T09:34:49;29.50;99.90
18876;DHT22;9570;50.854;13.778;2023-08-20T09:37:16;29.50;99.90
18876;DHT22;9570;50.854;13.778;2023-08-20T09:39:42;29.80;99.90
18876;DHT22;9570;50.854;13.778;2023-08-20T09:42:09;30.00;99.90
18876;DHT22;9570;50.854;13.778;2023-08-20T09:44:37;30.10;99.90
18876;DHT22;9570;50.854;13.778;2023-08-20T09:47:06;29.90;99.90
18876;DHT22;9570;50.854;13.778;2023-08-20T09:49:41;29.70;99.90
18876;DHT22;9570;50.854;13.778;2023-08-20T09:52:12;29.70;99.90
18876;DHT22;9570;50.854;13.778;2023-08-20T09:55:09;29.60;99.90
18876;DHT22;9570;50.854;13.778;2023-08-20T09:57:38;29.50;99.90
18876;DHT22;9570;50.854;13.778;2023-08-20T10:00:06;29.40;99.90
18876;DHT22;9570;50.854;13.778;2023-08-20T10:02:35;29.50;99.90
18876;DHT22;9570;50.854;13.778;2023-08-20T10:05:00;29.60;99.90
18876;DHT22;9570;50.854;13.778;2023-08-20T10:07:29;29.90;99.90
18876;DHT22;9570;50.854;13.778;2023-08-20T10:09:59;30.00;99.90
18876;DHT22;9570;50.854;13.778;2023-08-20T10:12:30;29.70;99.90
18876;DHT22;9570;50.854;13.778;2023-08-20T10:14:56;29.60;99.90
18876;DHT22;9570;50.854;13.778;2023-08-20T10:17:23;29.50;99.90
18876;DHT22;9570;50.854;13.778;2023-08-20T10:19:53;29.30;99.90
18876;DHT22;9570;50.854;13.778;2023-08-20T10:22:19;28.90;99.90
18876;DHT22;9570;50.854;13.778;2023-08-20T10:24:50;28.40;99.90
18876;DHT22;9570;50.854;13.778;2023-08-20T10:27:25;27.90;99.90
18876;DHT22;9570;50.854;13.778;2023-08-20T10:29:53;27.60;99.90
18876;DHT22;9570;50.854;13.778;2023-08-20T10:32:18;27.60;99.90
18876;DHT22;9570;50.854;13.778;2023-08-20T10:34:50;27.80;99.90
18876;DHT22;9570;50.854;13.778;2023-08-20T10:37:26;27.60;99.90
18876;DHT22;9570;50.854;13.778;2023-08-20T10:39:56;27.70;99.90
18876;DHT22;9570;50.854;13.778;2023-08-20T10:42:26;27.90;99.90
18876;DHT22;9570;50.854;13.778;2023-08-20T10:44:58;28.10;99.90
18876;DHT22;9570;50.854;13.778;2023-08-20T10:47:24;28.30;99.90
18876;DHT22;9570;50.854;13.778;2023-08-20T10:49:53;28.50;99.90
18876;DHT22;9570;50.854;13.778;2023-08-20T10:52:22;28.90;99.90
18876;DHT22;9570;50.854;13.778;2023-08-20T10:54:51;29.20;99.90
18876;DHT22;9570;50.854;13.778;2023-08-20T10:57:18;29.30;99.90
18876;DHT22;9570;50.854;13.778;2023-08-20T10:59:56;29.60;99.90
18876;DHT22;9570;50.854;13.778;2023-08-20T11:02:23;29.60;99.90
18876;DHT22;9570;50.854;13.778;2023-08-20T11:04:49;29.40;99.90
18876;DHT22;9570;50.854;13.778;2023-08-20T11:07:17;29.30;99.90
18876;DHT22;9570;50.854;13.778;2023-08-20T11:09:44;29.40;99.90
18876;DHT22;9570;50.854;13.778;2023-08-20T11:12:14;29.40;99.90
18876;DHT22;9570;50.854;13.778;2023-08-20T11:14:40;29.70;99.90
18876;DHT22;9570;50.854;13.778;2023-08-20T11:17:06;29.80;99.90
18876;DHT22;9570;50.854;13.778;2023-08-20T11:19:33;29.70;99.90
18876;DHT22;9570;50.854;13.778;2023-08-20T11:21:59;29.30;99.90
18876;DHT22;9570;50.854;13.778;2023-08-20T11:24:29;29.30;99.90
18876;DHT22;9570;50.854;13.778;2023-08-20T11:26:54;29.40;99.90
18876;DHT22;9570;50.854;13.778;2023-08-20T11:29:20;29.40;99.90
18876;DHT22;9570;50.854;13.778;2023-08-20T11:31:49;29.30;99.90
18876;DHT22;9570;50.854;13.778;2023-08-20T11:34:15;29.50;99.90
18876;DHT22;9570;50.854;13.778;2023-08-20T11:36:41;29.60;99.90
18876;DHT22;9570;50.854;13.778;2023-08-20T11:39:07;29.70;99.90
18876;DHT22;9570;50.854;13.778;2023-08-20T11:41:36;29.80;99.90
18876;DHT22;9570;50.854;13.778;2023-08-20T11:44:02;29.80;99.90
18876;DHT22;9570;50.854;13.778;2023-08-20T11:46:28;29.70;99.90
18876;DHT22;9570;50.854;13.778;2023-08-20T11:49:04;29.70;99.90
18876;DHT22;9570;50.854;13.778;2023-08-20T11:51:37;29.70;99.90
18876;DHT22;9570;50.854;13.778;2023-08-20T11:54:05;29.60;99.90
18876;DHT22;9570;50.854;13.778;2023-08-20T11:56:32;29.70;99.90
18876;DHT22;9570;50.854;13.778;2023-08-20T11:59:02;29.70;99.90
18876;DHT22;9570;50.854;13.778;2023-08-20T12:01:31;29.70;99.90
18876;DHT22;9570;50.854;13.778;2023-08-20T12:04:03;29.70;99.90
18876;DHT22;9570;50.854;13.778;2023-08-20T12:06:29;29.80;99.90
18876;DHT22;9570;50.854;13.778;2023-08-20T12:08:57;29.80;99.90
18876;DHT22;9570;50.854;13.778;2023-08-20T12:11:30;29.70;99.90
18876;DHT22;9570;50.854;13.778;2023-08-20T12:13:55;29.60;99.90
18876;DHT22;9570;50.854;13.778;2023-08-20T12:16:24;29.60;99.90
18876;DHT22;9570;50.854;13.778;2023-08-20T12:18:50;29.40;99.90
18876;DHT22;9570;50.854;13.778;2023-08-20T12:21:16;29.40;99.90
18876;DHT22;9570;50.854;13.778;2023-08-20T12:23:42;29.30;99.90
18876;DHT22;9570;50.854;13.778;2023-08-20T12:26:07;29.30;99.90
18876;DHT22;9570;50.854;13.778;2023-08-20T12:28:34;29.40;99.90
18876;DHT22;9570;50.854;13.778;2023-08-20T12:30:59;29.50;99.90
18876;DHT22;9570;50.854;13.778;2023-08-20T12:33:25;29.60;99.90
18876;DHT22;9570;50.854;13.778;2023-08-20T12:35:54;29.70;99.90
18876;DHT22;9570;50.854;13.778;2023-08-20T12:38:19;29.90;99.90
18876;DHT22;9570;50.854;13.778;2023-08-20T12:40:45;29.90;99.90
18876;DHT22;9570;50.854;13.778;2023-08-20T12:43:10;29.80;99.90
18876;DHT22;9570;50.854;13.778;2023-08-20T12:45:36;29.70;99.90
18876;DHT22;9570;50.854;13.778;2023-08-20T12:48:02;29.80;99.90
18876;DHT22;9570;50.854;13.778;2023-08-20T12:50:28;29.80;99.90
18876;DHT22;9570;50.854;13.778;2023-08-20T12:52:54;29.70;99.90
18876;DHT22;9570;50.854;13.778;2023-08-20T12:55:20;29.70;99.90
18876;DHT22;9570;50.854;13.778;2023-08-20T12:57:56;29.70;99.90
18876;DHT22;9570;50.854;13.778;2023-08-20T13:00:23;29.70;99.90
18876;DHT22;9570;50.854;13.778;2023-08-20T13:02:50;29.80;99.90
18876;DHT22;9570;50.854;13.778;2023-08-20T13:05:16;29.80;99.90
18876;DHT22;9570;50.854;13.778;2023-08-20T13:07:42;29.80;99.90
18876;DHT22;9570;50.854;13.778;2023-08-20T13:10:08;29.70;99.90
18876;DHT22;9570;50.854;13.778;2023-08-20T13:12:34;29.80;99.90
18876;DHT22;9570;50.854;13.778;2023-08-20T13:15:00;29.90;99.90
18876;DHT22;9570;50.854;13.778;2023-08-20T13:17:25;29.80;99.90
18876;DHT22;9570;50.854;13.778;2023-08-20T13:19:51;29.80;99.90
18876;DHT22;9570;50.854;13.778;2023-08-20T13:22:17;29.80;99.90
18876;DHT22;9570;50.854;13.778;2023-08-20T13:24:43;29.90;99.90
18876;DHT22;9570;50.854;13.778;2023-08-20T13:27:08;29.90;99.90
18876;DHT22;9570;50.854;13.778;2023-08-20T13:29:34;29.90;99.90
18876;DHT22;9570;50.854;13.778;2023-08-20T13:32:00;29.90;99.90
18876;DHT22;9570;50.854;13.778;2023-08-20T13:34:26;29.90;99.90
18876;DHT22;9570;50.854;13.778;2023-08-20T13:36:51;29.70;99.90
18876;DHT22;9570;50.854;13.778;2023-08-20T13:39:17;29.70;99.90
18876;DHT22;9570;50.854;13.778;2023-08-20T13:41:46;29.70;99.90
18876;DHT22;9570;50.854;13.778;2023-08-20T13:44:11;29.80;99.90
18876;DHT22;9570;50.854;13.778;2023-08-20T13:46:37;29.90;99.90
18876;DHT22;9570;50.854;13.778;2023-08-20T13:49:03;29.90;99.90
18876;DHT22;9570;50.854;13.778;2023-08-20T13:51:29;30.00;99.90
18876;DHT22;9570;50.854;13.778;2023-08-20T13:53:55;29.90;99.90
18876;DHT22;9570;50.854;13.778;2023-08-20T13:56:20;29.90;99.90
18876;DHT22;9570;50.854;13.778;2023-08-20T13:58:46;29.90;99.90
18876;DHT22;9570;50.854;13.778;2023-08-20T14:01:11;29.90;99.90
18876;DHT22;9570;50.854;13.778;2023-08-20T14:03:39;29.90;99.90
18876;DHT22;9570;50.854;13.778;2023-08-20T14:06:05;29.70;99.90
18876;DHT22;9570;50.854;13.778;2023-08-20T14:08:30;29.70;99.90
18876;DHT22;9570;50.854;13.778;2023-08-20T14:10:56;29.70;99.90
18876;DHT22;9570;50.854;13.778;2023-08-20T14:13:21;29.50;99.90
18876;DHT22;9570;50.854;13.778;2023-08-20T14:15:47;29.50;99.90
18876;DHT22;9570;50.854;13.778;2023-08-20T14:18:12;29.40;99.90
18876;DHT22;9570;50.854;13.778;2023-08-20T14:20:38;29.50;99.90
18876;DHT22;9570;50.854;13.778;2023-08-20T14:23:04;29.40;99.90
18876;DHT22;9570;50.854;13.778;2023-08-20T14:25:29;29.40;99.90
18876;DHT22;9570;50.854;13.778;2023-08-20T14:27:55;29.30;99.90
18876;DHT22;9570;50.854;13.778;2023-08-20T14:30:20;29.30;99.90
18876;DHT22;9570;50.854;13.778;2023-08-20T14:32:46;29.50;99.90
18876;DHT22;9570;50.854;13.778;2023-08-20T14:35:11;29.50;99.90
18876;DHT22;9570;50.854;13.778;2023-08-20T14:37:37;29.60;99.90
18876;DHT22;9570;50.854;13.778;2023-08-20T14:40:03;29.70;99.90
18876;DHT22;9570;50.854;13.778;2023-08-20T14:42:31;29.70;99.90
18876;DHT22;9570;50.854;13.778;2023-08-20T14:44:56;29.80;99.90
18876;DHT22;9570;50.854;13.778;2023-08-20T14:47:22;29.90;99.90
18876;DHT22;9570;50.854;13.778;2023-08-20T14:49:47;29.70;99.90
18876;DHT22;9570;50.854;13.778;2023-08-20T14:52:13;29.40;99.90
18876;DHT22;9570;50.854;13.778;2023-08-20T14:54:38;29.30;99.90
18876;DHT22;9570;50.854;13.778;2023-08-20T14:57:05;29.20;99.90
18876;DHT22;9570;50.854;13.778;2023-08-20T14:59:31;29.00;99.90
18876;DHT22;9570;50.854;13.778;2023-08-20T15:01:56;28.80;99.90
18876;DHT22;9570;50.854;13.778;2023-08-20T15:04:22;28.60;99.90
18876;DHT22;9570;50.854;13.778;2023-08-20T15:06:48;28.40;99.90
18876;DHT22;9570;50.854;13.778;2023-08-20T15:09:13;28.00;99.90
18876;DHT22;9570;50.854;13.778;2023-08-20T15:11:41;27.90;99.90
18876;DHT22;9570;50.854;13.778;2023-08-20T15:14:07;27.90;99.90
18876;DHT22;9570;50.854;13.778;2023-08-20T15:16:33;28.00;99.90
18876;DHT22;9570;50.854;13.778;2023-08-20T15:18:58;28.10;99.90
18876;DHT22;9570;50.854;13.778;2023-08-20T15:21:24;28.20;99.90
18876;DHT22;9570;50.854;13.778;2023-08-20T15:23:49;28.20;99.90
18876;DHT22;9570;50.854;13.778;2023-08-20T15:26:15;28.20;99.90